createdAt,value
2023-02-18T00:00:14.180Z,4.99
2023-02-18T00:02:43.943Z,5.02
2023-02-18T00:05:12.564Z,4.92
2023-02-18T00:07:41.779Z,4.80
2023-02-18T00:10:13.412Z,4.78
2023-02-18T00:12:41.835Z,4.95
2023-02-18T00:15:10.963Z,4.89
2023-02-18T00:17:39.161Z,4.88
2023-02-18T00:20:09.976Z,4.81
2023-02-18T00:22:38.173Z,4.75
2023-02-18T00:25:06.830Z,4.87
2023-02-18T00:27:35.072Z,4.76
2023-02-18T00:30:05.952Z,4.64
2023-02-18T00:32:35.915Z,4.72
2023-02-18T00:35:04.711Z,4.79
2023-02-18T00:37:35.481Z,4.86
2023-02-18T00:40:04.029Z,4.83
2023-02-18T00:42:32.372Z,4.91
2023-02-18T00:45:00.687Z,4.91
2023-02-18T00:47:28.898Z,4.71
2023-02-18T00:49:57.130Z,4.72
2023-02-18T00:52:25.414Z,4.68
2023-02-18T00:54:55.047Z,4.61
2023-02-18T00:57:23.453Z,4.68
2023-02-18T00:59:51.786Z,4.82
2023-02-18T01:02:20.059Z,4.88
2023-02-18T01:04:48.443Z,4.82
2023-02-18T01:07:16.798Z,4.77
2023-02-18T01:09:45.422Z,4.53
2023-02-18T01:12:16.649Z,4.64
2023-02-18T01:14:45.069Z,4.43
2023-02-18T01:17:13.326Z,4.45
2023-02-18T01:19:41.695Z,4.75
2023-02-18T01:22:09.958Z,5.02
2023-02-18T01:24:38.528Z,5.19
2023-02-18T01:27:06.827Z,4.79
2023-02-18T01:29:37.450Z,4.79
2023-02-18T01:32:05.871Z,4.73
2023-02-18T01:34:34.236Z,4.62
2023-02-18T01:37:02.484Z,4.42
2023-02-18T01:39:30.723Z,4.65
2023-02-18T01:41:59.049Z,4.75
2023-02-18T01:44:29.470Z,4.69
2023-02-18T01:46:59.128Z,5.09
2023-02-18T01:49:29.706Z,4.95
2023-02-18T01:52:01.463Z,4.98
2023-02-18T01:54:34.354Z,5.18
2023-02-18T01:57:05.095Z,5.00
2023-02-18T01:59:36.153Z,5.52
2023-02-18T02:02:06.204Z,5.10
2023-02-18T02:04:34.642Z,5.03
2023-02-18T02:07:04.191Z,5.15
2023-02-18T02:09:33.135Z,5.18
2023-02-18T02:12:18.276Z,5.27
2023-02-18T02:15:11.548Z,5.22
2023-02-18T02:17:46.890Z,5.13
2023-02-18T02:21:00.714Z,5.13
2023-02-18T02:23:43.020Z,5.04
2023-02-18T02:26:42.394Z,4.54
2023-02-18T02:29:43.965Z,4.41
2023-02-18T02:32:34.375Z,4.55
2023-02-18T02:35:04.840Z,4.43
2023-02-18T02:37:37.961Z,4.50
2023-02-18T02:40:14.717Z,4.84
2023-02-18T02:42:48.973Z,4.52
2023-02-18T02:45:24.413Z,4.51
2023-02-18T02:47:58.078Z,4.48
2023-02-18T02:50:30.444Z,4.63
2023-02-18T02:53:01.631Z,4.95
2023-02-18T02:55:29.952Z,4.76
2023-02-18T02:57:58.912Z,4.93
2023-02-18T03:00:42.707Z,4.44
2023-02-18T03:03:32.161Z,4.30
2023-02-18T03:06:26.728Z,4.55
2023-02-18T03:09:01.813Z,4.40
2023-02-18T03:11:32.778Z,4.27
2023-02-18T03:14:08.844Z,4.71
2023-02-18T03:16:46.862Z,4.73
2023-02-18T03:19:20.430Z,4.74
2023-02-18T03:21:53.818Z,4.75
2023-02-18T03:24:25.859Z,4.68
2023-02-18T03:26:57.678Z,4.78
2023-02-18T03:29:27.527Z,4.76
2023-02-18T03:31:58.821Z,4.73
2023-02-18T03:34:30.349Z,4.64
2023-02-18T03:37:01.430Z,4.70
2023-02-18T03:39:31.490Z,5.11
2023-02-18T03:41:59.901Z,5.08
2023-02-18T03:44:28.238Z,4.96
2023-02-18T03:46:56.469Z,4.77
2023-02-18T03:49:24.778Z,4.84
2023-02-18T03:51:52.985Z,5.06
2023-02-18T03:54:22.690Z,5.07
2023-02-18T03:56:51.034Z,4.99
2023-02-18T03:59:19.328Z,5.14
2023-02-18T04:01:47.658Z,5.31
2023-02-18T04:04:16.064Z,4.98
2023-02-18T04:06:44.279Z,4.77
2023-02-18T04:09:12.652Z,5.13
2023-02-18T04:11:42.470Z,5.26
2023-02-18T04:14:11.721Z,5.32
2023-02-18T04:16:40.124Z,5.47
2023-02-18T04:19:08.954Z,5.18
2023-02-18T04:21:37.322Z,5.05
2023-02-18T04:24:05.802Z,5.27
2023-02-18T04:26:34.065Z,5.20
2023-02-18T04:29:03.794Z,5.13
2023-02-18T04:31:32.228Z,5.03
2023-02-18T04:34:00.542Z,5.01
2023-02-18T04:36:28.941Z,5.17
2023-02-18T04:38:57.175Z,5.19
2023-02-18T04:41:25.466Z,5.16
2023-02-18T04:43:53.748Z,5.28
2023-02-18T04:46:25.357Z,5.37
2023-02-18T04:48:53.574Z,5.63
2023-02-18T04:51:21.921Z,5.70
2023-02-18T04:53:50.259Z,5.47
2023-02-18T04:56:18.542Z,5.28
2023-02-18T04:58:46.772Z,5.52
2023-02-18T05:01:15.107Z,5.46
2023-02-18T05:03:46.017Z,5.54
2023-02-18T05:06:14.343Z,5.65
2023-02-18T05:08:42.593Z,5.47
2023-02-18T05:11:11.195Z,5.38
2023-02-18T05:13:39.379Z,5.09
2023-02-18T05:16:08.312Z,4.88
2023-02-18T05:18:36.847Z,5.02
2023-02-18T05:21:07.048Z,4.88
2023-02-18T05:23:35.422Z,4.99
2023-02-18T05:26:03.875Z,5.15
2023-02-18T05:28:32.183Z,5.03
2023-02-18T05:31:00.724Z,5.16
2023-02-18T05:33:29.236Z,5.21
2023-02-18T05:35:57.481Z,5.13
2023-02-18T05:38:27.169Z,5.00
2023-02-18T05:40:56.269Z,5.09
2023-02-18T05:43:24.506Z,5.01
2023-02-18T05:45:52.762Z,5.06
2023-02-18T05:48:21.072Z,5.25
2023-02-18T05:50:49.300Z,5.23
2023-02-18T05:53:17.761Z,5.39
2023-02-18T05:55:47.390Z,5.25
2023-02-18T05:58:17.145Z,5.18
2023-02-18T06:00:45.398Z,5.28
2023-02-18T06:03:13.596Z,5.18
2023-02-18T06:05:42.492Z,4.95
2023-02-18T06:08:10.858Z,4.77
2023-02-18T06:10:41.596Z,4.69
2023-02-18T06:13:11.394Z,4.79
2023-02-18T06:15:40.361Z,4.83
2023-02-18T06:18:08.761Z,4.79
2023-02-18T06:20:37.153Z,4.87
2023-02-18T06:23:07.055Z,4.81
2023-02-18T06:25:35.919Z,4.83
2023-02-18T06:28:04.254Z,4.83
2023-02-18T06:30:34.113Z,4.62
2023-02-18T06:33:04.333Z,4.65
2023-02-18T06:35:33.673Z,4.71
2023-02-18T06:38:02.181Z,5.01
2023-02-18T06:40:30.520Z,4.80
2023-02-18T06:42:58.821Z,4.67
2023-02-18T06:45:27.078Z,4.75
2023-02-18T06:47:56.724Z,4.73
2023-02-18T06:50:25.105Z,4.90
2023-02-18T06:52:53.381Z,4.87
2023-02-18T06:55:22.874Z,5.16
2023-02-18T06:57:51.155Z,4.96
2023-02-18T07:00:22.885Z,4.79
2023-02-18T07:02:51.118Z,4.89
2023-02-18T07:05:20.782Z,5.41
2023-02-18T07:07:49.093Z,5.56
2023-02-18T07:10:17.394Z,5.45
2023-02-18T07:12:45.848Z,5.45
2023-02-18T07:15:14.310Z,5.65
2023-02-18T07:17:43.318Z,5.53
2023-02-18T07:20:11.999Z,5.62
2023-02-18T07:22:41.972Z,5.78
2023-02-18T07:25:10.317Z,5.72
2023-02-18T07:27:39.724Z,5.77
2023-02-18T07:30:09.700Z,6.30
2023-02-18T07:32:38.652Z,5.94
2023-02-18T07:35:08.448Z,5.70
2023-02-18T07:37:36.881Z,5.96
2023-02-18T07:40:09.382Z,5.94
2023-02-18T07:42:37.788Z,6.33
2023-02-18T07:45:06.804Z,6.35
2023-02-18T07:47:35.672Z,6.65
2023-02-18T07:50:04.365Z,6.60
2023-02-18T07:52:32.883Z,6.58
2023-02-18T07:55:02.496Z,6.79
2023-02-18T07:57:33.369Z,6.67
2023-02-18T08:00:01.670Z,6.94
2023-02-18T08:02:30.153Z,6.91
2023-02-18T08:04:58.469Z,7.11
2023-02-18T08:07:26.778Z,7.51
2023-02-18T08:09:59.444Z,7.32
2023-02-18T08:12:27.872Z,7.36
2023-02-18T08:14:58.125Z,7.55
2023-02-18T08:17:27.181Z,7.75
2023-02-18T08:19:56.465Z,7.90
2023-02-18T08:22:25.472Z,8.28
2023-02-18T08:24:56.521Z,8.00
2023-02-18T08:27:31.933Z,7.94
2023-02-18T08:30:01.686Z,8.11
2023-02-18T08:32:31.077Z,8.11
2023-02-18T08:34:59.449Z,8.25
2023-02-18T08:37:27.956Z,8.34
2023-02-18T08:39:56.610Z,8.47
2023-02-18T08:42:25.230Z,8.73
2023-02-18T08:44:56.316Z,8.79
2023-02-18T08:48:16.043Z,8.81
2023-02-18T08:50:20.984Z,8.86
2023-02-18T08:52:49.265Z,8.89
2023-02-18T08:55:21.619Z,8.97
2023-02-18T08:57:50.073Z,8.94
2023-02-18T09:00:18.959Z,8.95
2023-02-18T09:02:49.042Z,8.95
2023-02-18T09:05:17.603Z,8.99
2023-02-18T09:07:46.205Z,9.03
2023-02-18T09:10:14.449Z,9.14
2023-02-18T09:12:43.946Z,9.22
2023-02-18T09:15:13.467Z,9.52
2023-02-18T09:17:42.001Z,9.28
2023-02-18T09:20:12.471Z,9.59
2023-02-18T09:22:40.906Z,9.55
2023-02-18T09:25:09.615Z,9.98
2023-02-18T09:27:38.175Z,10.05
2023-02-18T09:30:09.118Z,10.48
2023-02-18T09:32:38.713Z,11.21
2023-02-18T09:35:08.749Z,11.35
2023-02-18T09:37:40.120Z,11.92
2023-02-18T09:40:09.610Z,12.13
2023-02-18T09:42:37.952Z,12.61
2023-02-18T09:45:09.092Z,12.74
2023-02-18T09:47:39.530Z,13.20
2023-02-18T09:50:12.765Z,13.34
2023-02-18T09:52:43.354Z,13.68
2023-02-18T09:55:23.063Z,13.93
2023-02-18T09:57:52.881Z,14.30
2023-02-18T10:00:24.298Z,14.47
2023-02-18T10:02:58.082Z,14.25
2023-02-18T10:05:29.589Z,14.86
2023-02-18T10:08:01.763Z,14.99
2023-02-18T10:10:37.511Z,15.16
2023-02-18T10:13:08.519Z,15.56
2023-02-18T10:15:37.790Z,15.46
2023-02-18T10:18:09.567Z,15.56
2023-02-18T10:20:38.988Z,15.40
2023-02-18T10:23:09.764Z,15.72
2023-02-18T10:25:42.854Z,15.90
2023-02-18T10:28:11.622Z,16.40
2023-02-18T10:30:43.658Z,16.33
2023-02-18T10:33:23.854Z,16.43
2023-02-18T10:35:55.206Z,16.56
2023-02-18T10:38:33.735Z,16.60
2023-02-18T10:41:07.998Z,16.24
2023-02-18T10:43:43.266Z,16.86
2023-02-18T10:46:21.900Z,17.10
2023-02-18T10:49:00.675Z,17.29
2023-02-18T10:51:31.477Z,17.21
2023-02-18T10:54:01.293Z,17.48
2023-02-18T10:56:38.995Z,17.90
2023-02-18T10:59:12.630Z,18.11
2023-02-18T11:01:42.017Z,17.62
2023-02-18T11:04:16.451Z,18.01
2023-02-18T11:06:47.059Z,18.57
2023-02-18T11:09:31.135Z,18.22
2023-02-18T11:12:09.050Z,18.00
2023-02-18T11:14:46.124Z,17.68
2023-02-18T11:17:21.832Z,17.76
2023-02-18T11:20:00.482Z,18.11
2023-02-18T11:22:31.824Z,18.22
2023-02-18T11:25:07.307Z,18.65
2023-02-18T11:27:43.077Z,17.97
2023-02-18T11:30:20.685Z,18.26
2023-02-18T11:32:51.090Z,18.51
2023-02-18T11:35:21.300Z,18.71
2023-02-18T11:37:49.753Z,18.14
2023-02-18T11:40:24.781Z,18.69
2023-02-18T11:42:53.380Z,19.04
2023-02-18T11:45:29.974Z,18.73
2023-02-18T11:48:02.281Z,18.37
2023-02-18T11:50:33.651Z,18.55
2023-02-18T11:53:02.099Z,18.67
2023-02-18T11:55:32.926Z,18.63
2023-02-18T11:58:03.859Z,18.46
2023-02-18T12:00:39.188Z,18.79
2023-02-18T12:03:10.375Z,18.23
2023-02-18T12:05:38.995Z,18.60
2023-02-18T12:08:12.251Z,19.26
2023-02-18T12:10:44.643Z,19.10
2023-02-18T12:13:23.822Z,19.12
2023-02-18T12:16:05.237Z,19.47
2023-02-18T12:18:46.198Z,19.21
2023-02-18T12:21:42.979Z,19.15
2023-02-18T12:24:21.206Z,19.23
2023-02-18T12:26:59.677Z,19.46
2023-02-18T12:29:49.292Z,19.10
2023-02-18T12:32:29.842Z,19.08
2023-02-18T12:35:09.446Z,19.54
2023-02-18T12:38:01.195Z,19.77
2023-02-18T12:40:47.941Z,19.45
2023-02-18T12:43:26.672Z,19.83
2023-02-18T12:46:29.375Z,19.62
2023-02-18T12:49:17.628Z,19.07
2023-02-18T12:51:56.935Z,19.16
2023-02-18T12:55:00.826Z,19.08
2023-02-18T12:57:38.472Z,19.22
2023-02-18T13:00:32.383Z,19.16
2023-02-18T13:03:31.295Z,18.57
2023-02-18T13:06:06.424Z,18.21
2023-02-18T13:08:43.790Z,18.49
2023-02-18T13:11:22.303Z,18.22
2023-02-18T13:13:58.414Z,18.08
2023-02-18T13:16:28.961Z,17.82
2023-02-18T13:19:03.741Z,17.96
2023-02-18T13:21:32.654Z,18.37
2023-02-18T13:24:03.667Z,19.04
2023-02-18T13:26:34.239Z,18.32
2023-02-18T13:29:16.447Z,18.15
2023-02-18T13:32:00.769Z,18.27
2023-02-18T13:34:34.817Z,18.43
2023-02-18T13:37:09.920Z,17.90
2023-02-18T13:39:40.540Z,17.57
2023-02-18T13:42:31.863Z,17.20
2023-02-18T13:45:29.460Z,16.82
2023-02-18T13:48:00.585Z,17.20
2023-02-18T13:50:34.409Z,17.58
2023-02-18T13:53:28.295Z,17.67
2023-02-18T13:56:03.575Z,17.32
2023-02-18T13:58:38.119Z,17.39
2023-02-18T14:01:16.773Z,17.80
2023-02-18T14:04:02.763Z,17.57
2023-02-18T14:06:45.259Z,18.04
2023-02-18T14:09:38.715Z,18.66
2023-02-18T14:12:41.449Z,19.14
2023-02-18T14:15:51.676Z,18.81
2023-02-18T14:18:32.230Z,18.21
2023-02-18T14:21:21.199Z,18.26
2023-02-18T14:24:06.237Z,18.26
2023-02-18T14:26:39.462Z,17.83
2023-02-18T14:29:16.289Z,18.05
2023-02-18T14:31:56.325Z,17.48
2023-02-18T14:35:04.784Z,16.92
2023-02-18T14:37:48.256Z,16.33
2023-02-18T14:40:28.476Z,15.97
2023-02-18T14:43:03.870Z,15.57
2023-02-18T14:45:42.133Z,15.31
2023-02-18T14:48:28.994Z,15.11
2023-02-18T14:51:00.743Z,14.84
2023-02-18T14:53:32.277Z,15.02
2023-02-18T14:56:06.356Z,14.68
2023-02-18T14:58:38.581Z,14.34
2023-02-18T15:01:19.712Z,14.05
2023-02-18T15:03:49.427Z,13.92
2023-02-18T15:06:35.000Z,13.57
2023-02-18T15:09:15.635Z,13.52
2023-02-18T15:11:47.469Z,13.38
2023-02-18T15:14:19.671Z,13.28
2023-02-18T15:16:50.265Z,13.28
2023-02-18T15:19:24.412Z,13.10
2023-02-18T15:21:55.254Z,12.93
2023-02-18T15:24:28.351Z,12.79
2023-02-18T15:26:59.091Z,12.63
2023-02-18T15:29:29.484Z,12.51
2023-02-18T15:32:01.117Z,12.48
2023-02-18T15:34:37.387Z,12.50
2023-02-18T15:37:08.970Z,12.45
2023-02-18T15:39:41.034Z,12.40
2023-02-18T15:42:14.309Z,12.32
2023-02-18T15:44:48.273Z,12.22
2023-02-18T15:47:17.958Z,12.20
2023-02-18T15:49:48.932Z,12.03
2023-02-18T15:52:17.933Z,11.94
2023-02-18T15:54:48.566Z,11.86
2023-02-18T15:57:18.682Z,11.88
2023-02-18T15:59:53.982Z,11.62
2023-02-18T16:02:24.992Z,11.44
2023-02-18T16:04:58.252Z,11.28
2023-02-18T16:07:29.629Z,11.22
2023-02-18T16:10:18.810Z,11.05
2023-02-18T16:12:50.861Z,10.97
2023-02-18T16:15:28.320Z,10.90
2023-02-18T16:17:59.088Z,10.76
2023-02-18T16:20:31.572Z,10.61
2023-02-18T16:23:03.949Z,10.54
2023-02-18T16:25:45.128Z,10.47
2023-02-18T16:28:17.334Z,10.34
2023-02-18T16:30:46.900Z,10.13
2023-02-18T16:33:16.689Z,10.09
2023-02-18T16:35:50.354Z,10.28
2023-02-18T16:38:30.144Z,10.11
2023-02-18T16:41:04.003Z,9.97
2023-02-18T16:43:33.467Z,9.73
2023-02-18T16:46:10.467Z,9.71
2023-02-18T16:48:41.984Z,9.52
2023-02-18T16:51:15.807Z,9.26
2023-02-18T16:53:44.648Z,9.20
2023-02-18T16:56:22.120Z,9.13
2023-02-18T16:58:52.688Z,8.91
2023-02-18T17:01:27.507Z,8.74
2023-02-18T17:03:57.693Z,8.58
2023-02-18T17:06:27.385Z,8.68
2023-02-18T17:08:57.782Z,8.56
2023-02-18T17:11:33.148Z,8.40
2023-02-18T17:14:06.617Z,8.64
2023-02-18T17:16:37.099Z,8.19
2023-02-18T17:19:07.981Z,8.42
2023-02-18T17:21:41.818Z,8.26
2023-02-18T17:24:15.085Z,7.97
2023-02-18T17:26:46.040Z,7.93
2023-02-18T17:29:21.317Z,7.98
2023-02-18T17:31:55.269Z,7.78
2023-02-18T17:34:31.527Z,7.66
2023-02-18T17:37:02.613Z,7.49
2023-02-18T17:39:31.650Z,7.46
2023-02-18T17:42:03.776Z,7.57
2023-02-18T17:44:34.739Z,7.51
2023-02-18T17:47:04.568Z,7.50
2023-02-18T17:49:34.570Z,7.45
2023-02-18T17:52:08.776Z,7.23
2023-02-18T17:54:40.800Z,7.39
2023-02-18T17:57:12.251Z,7.29
2023-02-18T17:59:43.256Z,7.21
2023-02-18T18:02:26.918Z,7.11
2023-02-18T18:04:56.775Z,6.81
2023-02-18T18:07:27.702Z,6.69
2023-02-18T18:09:58.558Z,6.86
2023-02-18T18:12:33.387Z,6.98
2023-02-18T18:15:04.975Z,7.05
2023-02-18T18:17:37.440Z,6.89
2023-02-18T18:20:09.335Z,6.73
2023-02-18T18:22:40.334Z,6.74
2023-02-18T18:25:19.026Z,6.77
2023-02-18T18:27:56.636Z,6.83
2023-02-18T18:30:28.512Z,6.82
2023-02-18T18:32:59.510Z,6.64
2023-02-18T18:35:36.540Z,6.51
2023-02-18T18:38:06.395Z,6.30
2023-02-18T18:40:55.048Z,6.13
2023-02-18T18:43:41.409Z,6.04
2023-02-18T18:46:12.526Z,6.05
2023-02-18T18:48:43.029Z,6.07
2023-02-18T18:51:16.484Z,5.73
2023-02-18T18:53:47.943Z,5.69
2023-02-18T18:56:19.094Z,5.63
2023-02-18T18:58:51.069Z,5.82
2023-02-18T19:01:30.793Z,5.89
2023-02-18T19:04:02.214Z,5.76
2023-02-18T19:06:36.973Z,5.80
2023-02-18T19:09:10.667Z,5.89
2023-02-18T19:11:42.719Z,6.38
2023-02-18T19:14:14.755Z,6.13
2023-02-18T19:16:46.093Z,6.17
2023-02-18T19:19:17.390Z,6.19
2023-02-18T19:21:47.309Z,6.21
2023-02-18T19:24:24.712Z,6.03
2023-02-18T19:26:55.802Z,5.71
2023-02-18T19:29:39.056Z,5.68
2023-02-18T19:32:11.719Z,5.96
2023-02-18T19:34:43.229Z,5.77
2023-02-18T19:37:13.319Z,5.95
2023-02-18T19:39:46.189Z,5.80
2023-02-18T19:42:17.064Z,5.66
2023-02-18T19:44:49.846Z,5.40
2023-02-18T19:47:19.892Z,5.34
2023-02-18T19:49:53.122Z,5.14
2023-02-18T19:52:24.660Z,5.59
2023-02-18T19:55:00.899Z,5.37
2023-02-18T19:57:30.916Z,5.21
2023-02-18T20:00:02.254Z,5.37
2023-02-18T20:02:43.232Z,5.17
2023-02-18T20:05:20.169Z,5.05
2023-02-18T20:07:51.375Z,5.06
2023-02-18T20:10:22.282Z,4.99
2023-02-18T20:12:54.873Z,5.17
2023-02-18T20:15:28.329Z,5.02
2023-02-18T20:18:00.144Z,5.83
2023-02-18T20:20:29.060Z,5.34
2023-02-18T20:22:58.886Z,5.70
2023-02-18T20:25:29.809Z,5.62
2023-02-18T20:28:01.828Z,5.60
2023-02-18T20:30:35.079Z,5.97
2023-02-18T20:33:06.994Z,5.71
2023-02-18T20:35:37.233Z,5.69
2023-02-18T20:38:09.634Z,5.55
2023-02-18T20:40:39.718Z,5.47
2023-02-18T20:43:09.638Z,5.61
2023-02-18T20:45:43.332Z,5.71
2023-02-18T20:48:18.721Z,5.72
2023-02-18T20:50:59.015Z,5.71
2023-02-18T20:53:32.629Z,5.71
2023-02-18T20:56:02.812Z,5.46
2023-02-18T20:58:34.721Z,5.83
2023-02-18T21:01:07.963Z,6.00
2023-02-18T21:03:48.089Z,5.81
2023-02-18T21:06:26.576Z,5.51
2023-02-18T21:08:57.276Z,5.22
2023-02-18T21:11:28.503Z,5.08
2023-02-18T21:13:58.816Z,5.51
2023-02-18T21:16:39.194Z,5.68
2023-02-18T21:19:10.364Z,5.43
2023-02-18T21:21:47.286Z,5.35
2023-02-18T21:24:17.120Z,5.25
2023-02-18T21:26:48.537Z,5.46
2023-02-18T21:29:18.124Z,5.36
2023-02-18T21:31:51.512Z,5.38
2023-02-18T21:34:23.181Z,5.45
2023-02-18T21:36:52.286Z,5.51
2023-02-18T21:39:23.971Z,5.38
2023-02-18T21:41:54.047Z,5.41
2023-02-18T21:44:32.867Z,5.45
2023-02-18T21:47:13.316Z,5.41
2023-02-18T21:49:43.183Z,5.48
2023-02-18T21:52:12.903Z,5.45
2023-02-18T21:54:45.658Z,5.51
2023-02-18T21:57:17.988Z,5.36
2023-02-18T21:59:47.315Z,5.18
2023-02-18T22:02:19.087Z,5.29
2023-02-18T22:04:50.853Z,5.55
2023-02-18T22:07:20.383Z,5.87
2023-02-18T22:09:50.843Z,5.49
2023-02-18T22:12:19.749Z,5.23
2023-02-18T22:14:50.011Z,5.51
2023-02-18T22:17:21.636Z,5.36
2023-02-18T22:19:50.087Z,5.16
2023-02-18T22:22:18.479Z,5.84
2023-02-18T22:24:46.837Z,5.53
2023-02-18T22:27:15.156Z,5.29
2023-02-18T22:29:43.643Z,5.13
2023-02-18T22:32:12.096Z,4.95
2023-02-18T22:34:42.188Z,4.96
2023-02-18T22:37:10.659Z,5.22
2023-02-18T22:39:39.246Z,5.23
2023-02-18T22:42:07.526Z,4.92
2023-02-18T22:44:35.835Z,4.84
2023-02-18T22:47:04.138Z,4.81
2023-02-18T22:49:32.476Z,4.71
2023-02-18T22:52:02.971Z,4.52
2023-02-18T22:54:31.235Z,4.49
2023-02-18T22:56:59.660Z,4.50
2023-02-18T22:59:27.939Z,4.49
2023-02-18T23:01:56.247Z,4.24
2023-02-18T23:04:24.680Z,4.06
2023-02-18T23:06:53.100Z,4.01
2023-02-18T23:09:24.368Z,3.93
2023-02-18T23:11:56.368Z,3.90
2023-02-18T23:14:24.860Z,3.79
2023-02-18T23:17:14.206Z,3.82
2023-02-18T23:19:44.046Z,3.99
2023-02-18T23:22:14.322Z,3.93
2023-02-18T23:24:45.945Z,3.77
2023-02-18T23:27:16.025Z,3.79
2023-02-18T23:29:44.523Z,3.89
2023-02-18T23:32:12.937Z,3.99
2023-02-18T23:34:41.421Z,3.72
2023-02-18T23:37:09.810Z,3.91
2023-02-18T23:39:38.185Z,3.87
2023-02-18T23:42:09.016Z,3.78
2023-02-18T23:44:37.401Z,4.11
2023-02-18T23:47:06.370Z,4.36
2023-02-18T23:49:35.340Z,4.31
2023-02-18T23:52:03.730Z,4.20
2023-02-18T23:54:32.065Z,4.23
2023-02-18T23:57:00.399Z,4.34
2023-02-18T23:59:30.088Z,4.19
